sensor_id;sensor_type;location;lat;lon;timestamp;P1;durP1;ratioP1;P2;durP2;ratioP2
40981;SDS011;26708;50.304;19.028;2022-07-22T00:01:26;18.60;;;7.35;;
40981;SDS011;26708;50.304;19.028;2022-07-22T00:04:27;12.32;;;5.18;;
40981;SDS011;26708;50.304;19.028;2022-07-22T00:07:28;12.18;;;4.70;;
40981;SDS011;26708;50.304;19.028;2022-07-22T00:10:29;14.43;;;4.07;;
40981;SDS011;26708;50.304;19.028;2022-07-22T00:13:31;17.67;;;4.80;;
40981;SDS011;26708;50.304;19.028;2022-07-22T00:16:32;13.82;;;4.70;;
40981;SDS011;26708;50.304;19.028;2022-07-22T00:19:32;11.95;;;4.55;;
40981;SDS011;26708;50.304;19.028;2022-07-22T00:22:34;11.50;;;4.55;;
40981;SDS011;26708;50.304;19.028;2022-07-22T00:25:35;8.52;;;3.50;;
40981;SDS011;26708;50.304;19.028;2022-07-22T00:28:36;13.02;;;3.80;;
40981;SDS011;26708;50.304;19.028;2022-07-22T00:31:37;11.30;;;3.95;;
40981;SDS011;26708;50.304;19.028;2022-07-22T00:34:38;10.05;;;3.83;;
40981;SDS011;26708;50.304;19.028;2022-07-22T00:37:38;11.60;;;3.50;;
40981;SDS011;26708;50.304;19.028;2022-07-22T00:40:39;9.40;;;3.67;;
40981;SDS011;26708;50.304;19.028;2022-07-22T00:43:50;8.43;;;3.92;;
40981;SDS011;26708;50.304;19.028;2022-07-22T00:46:57;8.82;;;3.60;;
40981;SDS011;26708;50.304;19.028;2022-07-22T00:49:58;15.35;;;3.72;;
40981;SDS011;26708;50.304;19.028;2022-07-22T00:52:59;10.45;;;4.07;;
40981;SDS011;26708;50.304;19.028;2022-07-22T00:56:01;12.05;;;4.50;;
40981;SDS011;26708;50.304;19.028;2022-07-22T00:59:05;12.23;;;3.85;;
40981;SDS011;26708;50.304;19.028;2022-07-22T01:02:09;9.10;;;3.53;;
40981;SDS011;26708;50.304;19.028;2022-07-22T01:05:10;11.60;;;3.90;;
40981;SDS011;26708;50.304;19.028;2022-07-22T01:08:12;9.05;;;3.45;;
40981;SDS011;26708;50.304;19.028;2022-07-22T01:11:14;8.13;;;3.80;;
40981;SDS011;26708;50.304;19.028;2022-07-22T01:14:17;11.40;;;4.25;;
40981;SDS011;26708;50.304;19.028;2022-07-22T01:17:18;11.05;;;3.92;;
40981;SDS011;26708;50.304;19.028;2022-07-22T01:20:18;10.10;;;3.90;;
40981;SDS011;26708;50.304;19.028;2022-07-22T01:23:19;11.18;;;3.75;;
40981;SDS011;26708;50.304;19.028;2022-07-22T01:26:20;8.85;;;4.15;;
40981;SDS011;26708;50.304;19.028;2022-07-22T01:29:21;7.15;;;3.60;;
40981;SDS011;26708;50.304;19.028;2022-07-22T01:32:22;11.48;;;3.72;;
40981;SDS011;26708;50.304;19.028;2022-07-22T01:35:23;9.93;;;4.40;;
40981;SDS011;26708;50.304;19.028;2022-07-22T01:38:23;10.27;;;4.30;;
40981;SDS011;26708;50.304;19.028;2022-07-22T01:41:25;9.02;;;4.30;;
40981;SDS011;26708;50.304;19.028;2022-07-22T01:44:26;12.68;;;3.67;;
40981;SDS011;26708;50.304;19.028;2022-07-22T01:47:27;9.93;;;3.50;;
40981;SDS011;26708;50.304;19.028;2022-07-22T01:50:27;8.10;;;3.55;;
40981;SDS011;26708;50.304;19.028;2022-07-22T01:53:28;9.02;;;4.07;;
40981;SDS011;26708;50.304;19.028;2022-07-22T01:56:29;14.45;;;4.00;;
40981;SDS011;26708;50.304;19.028;2022-07-22T01:59:30;13.43;;;4.20;;
40981;SDS011;26708;50.304;19.028;2022-07-22T02:02:32;9.02;;;4.28;;
40981;SDS011;26708;50.304;19.028;2022-07-22T02:05:33;11.77;;;4.25;;
40981;SDS011;26708;50.304;19.028;2022-07-22T02:08:40;7.50;;;3.80;;
40981;SDS011;26708;50.304;19.028;2022-07-22T02:11:41;10.02;;;3.88;;
40981;SDS011;26708;50.304;19.028;2022-07-22T02:14:43;12.73;;;4.13;;
40981;SDS011;26708;50.304;19.028;2022-07-22T02:17:44;17.73;;;4.25;;
40981;SDS011;26708;50.304;19.028;2022-07-22T02:20:45;14.52;;;4.32;;
40981;SDS011;26708;50.304;19.028;2022-07-22T02:23:48;9.45;;;4.03;;
40981;SDS011;26708;50.304;19.028;2022-07-22T02:26:49;7.63;;;3.88;;
40981;SDS011;26708;50.304;19.028;2022-07-22T02:29:50;7.82;;;3.85;;
40981;SDS011;26708;50.304;19.028;2022-07-22T02:32:51;8.32;;;4.00;;
40981;SDS011;26708;50.304;19.028;2022-07-22T02:35:52;11.90;;;4.30;;
40981;SDS011;26708;50.304;19.028;2022-07-22T02:38:52;9.43;;;4.03;;
40981;SDS011;26708;50.304;19.028;2022-07-22T02:41:54;11.13;;;3.97;;
40981;SDS011;26708;50.304;19.028;2022-07-22T02:44:55;11.40;;;4.57;;
40981;SDS011;26708;50.304;19.028;2022-07-22T02:47:56;10.93;;;3.55;;
40981;SDS011;26708;50.304;19.028;2022-07-22T02:50:58;11.25;;;4.50;;
40981;SDS011;26708;50.304;19.028;2022-07-22T02:54:02;8.00;;;4.40;;
40981;SDS011;26708;50.304;19.028;2022-07-22T02:57:03;11.40;;;4.72;;
40981;SDS011;26708;50.304;19.028;2022-07-22T03:00:04;12.48;;;4.38;;
40981;SDS011;26708;50.304;19.028;2022-07-22T03:03:10;11.63;;;5.00;;
40981;SDS011;26708;50.304;19.028;2022-07-22T03:06:11;19.00;;;5.68;;
40981;SDS011;26708;50.304;19.028;2022-07-22T03:09:18;14.23;;;5.82;;
40981;SDS011;26708;50.304;19.028;2022-07-22T03:12:20;12.98;;;5.70;;
40981;SDS011;26708;50.304;19.028;2022-07-22T03:15:22;14.00;;;4.97;;
40981;SDS011;26708;50.304;19.028;2022-07-22T03:18:23;19.13;;;6.85;;
40981;SDS011;26708;50.304;19.028;2022-07-22T03:21:24;16.33;;;6.07;;
40981;SDS011;26708;50.304;19.028;2022-07-22T03:24:26;16.67;;;6.55;;
40981;SDS011;26708;50.304;19.028;2022-07-22T03:27:27;13.57;;;6.60;;
40981;SDS011;26708;50.304;19.028;2022-07-22T03:30:28;14.10;;;7.72;;
40981;SDS011;26708;50.304;19.028;2022-07-22T03:33:29;15.23;;;7.13;;
40981;SDS011;26708;50.304;19.028;2022-07-22T03:36:31;11.57;;;7.15;;
40981;SDS011;26708;50.304;19.028;2022-07-22T03:39:32;13.75;;;6.53;;
40981;SDS011;26708;50.304;19.028;2022-07-22T03:42:33;10.10;;;5.45;;
40981;SDS011;26708;50.304;19.028;2022-07-22T03:45:33;10.63;;;5.75;;
40981;SDS011;26708;50.304;19.028;2022-07-22T03:48:34;11.15;;;5.75;;
40981;SDS011;26708;50.304;19.028;2022-07-22T03:51:36;12.85;;;6.35;;
40981;SDS011;26708;50.304;19.028;2022-07-22T03:54:37;13.35;;;7.10;;
40981;SDS011;26708;50.304;19.028;2022-07-22T03:57:38;13.10;;;6.90;;
40981;SDS011;26708;50.304;19.028;2022-07-22T04:00:48;15.52;;;6.93;;
40981;SDS011;26708;50.304;19.028;2022-07-22T04:03:49;12.07;;;6.60;;
40981;SDS011;26708;50.304;19.028;2022-07-22T04:07:02;12.80;;;7.30;;
40981;SDS011;26708;50.304;19.028;2022-07-22T04:10:09;12.93;;;6.28;;
40981;SDS011;26708;50.304;19.028;2022-07-22T04:13:14;12.55;;;6.38;;
40981;SDS011;26708;50.304;19.028;2022-07-22T04:16:23;11.35;;;5.57;;
40981;SDS011;26708;50.304;19.028;2022-07-22T04:19:32;15.13;;;5.38;;
40981;SDS011;26708;50.304;19.028;2022-07-22T04:22:35;10.48;;;5.78;;
40981;SDS011;26708;50.304;19.028;2022-07-22T04:25:36;13.70;;;6.13;;
40981;SDS011;26708;50.304;19.028;2022-07-22T04:28:37;10.52;;;5.18;;
40981;SDS011;26708;50.304;19.028;2022-07-22T04:31:39;11.07;;;5.32;;
40981;SDS011;26708;50.304;19.028;2022-07-22T04:34:46;9.32;;;5.75;;
40981;SDS011;26708;50.304;19.028;2022-07-22T04:37:46;12.95;;;5.25;;
40981;SDS011;26708;50.304;19.028;2022-07-22T04:40:47;12.55;;;5.20;;
40981;SDS011;26708;50.304;19.028;2022-07-22T04:43:48;9.82;;;5.65;;
40981;SDS011;26708;50.304;19.028;2022-07-22T04:46:49;6.82;;;5.00;;
40981;SDS011;26708;50.304;19.028;2022-07-22T04:49:50;7.75;;;4.82;;
40981;SDS011;26708;50.304;19.028;2022-07-22T04:52:51;13.05;;;5.70;;
40981;SDS011;26708;50.304;19.028;2022-07-22T04:55:52;15.48;;;5.55;;
40981;SDS011;26708;50.304;19.028;2022-07-22T04:58:53;11.40;;;5.00;;
40981;SDS011;26708;50.304;19.028;2022-07-22T05:01:56;7.55;;;4.93;;
40981;SDS011;26708;50.304;19.028;2022-07-22T05:04:58;9.18;;;5.03;;
40981;SDS011;26708;50.304;19.028;2022-07-22T05:07:59;14.77;;;5.07;;
40981;SDS011;26708;50.304;19.028;2022-07-22T05:11:02;14.27;;;5.10;;
40981;SDS011;26708;50.304;19.028;2022-07-22T05:14:03;7.53;;;4.40;;
40981;SDS011;26708;50.304;19.028;2022-07-22T05:17:08;12.25;;;5.25;;
40981;SDS011;26708;50.304;19.028;2022-07-22T05:20:12;8.75;;;5.10;;
40981;SDS011;26708;50.304;19.028;2022-07-22T05:23:15;8.68;;;4.43;;
40981;SDS011;26708;50.304;19.028;2022-07-22T05:26:17;9.02;;;5.00;;
40981;SDS011;26708;50.304;19.028;2022-07-22T05:29:18;12.18;;;4.70;;
40981;SDS011;26708;50.304;19.028;2022-07-22T05:32:19;12.40;;;4.85;;
40981;SDS011;26708;50.304;19.028;2022-07-22T05:35:22;8.93;;;5.00;;
40981;SDS011;26708;50.304;19.028;2022-07-22T05:38:23;9.02;;;5.47;;
40981;SDS011;26708;50.304;19.028;2022-07-22T05:41:24;8.55;;;5.78;;
40981;SDS011;26708;50.304;19.028;2022-07-22T05:44:26;10.07;;;5.13;;
40981;SDS011;26708;50.304;19.028;2022-07-22T05:47:28;11.32;;;5.05;;
40981;SDS011;26708;50.304;19.028;2022-07-22T05:50:29;11.63;;;5.28;;
40981;SDS011;26708;50.304;19.028;2022-07-22T05:53:31;7.80;;;5.28;;
40981;SDS011;26708;50.304;19.028;2022-07-22T05:56:32;8.40;;;5.35;;
40981;SDS011;26708;50.304;19.028;2022-07-22T05:59:33;9.23;;;5.60;;
40981;SDS011;26708;50.304;19.028;2022-07-22T06:02:33;7.97;;;5.72;;
40981;SDS011;26708;50.304;19.028;2022-07-22T06:05:34;12.43;;;5.93;;
40981;SDS011;26708;50.304;19.028;2022-07-22T06:08:41;16.63;;;5.70;;
40981;SDS011;26708;50.304;19.028;2022-07-22T06:11:42;12.20;;;5.82;;
40981;SDS011;26708;50.304;19.028;2022-07-22T06:14:44;13.38;;;5.70;;
40981;SDS011;26708;50.304;19.028;2022-07-22T06:17:46;11.68;;;5.93;;
40981;SDS011;26708;50.304;19.028;2022-07-22T06:20:47;13.90;;;6.03;;
40981;SDS011;26708;50.304;19.028;2022-07-22T06:23:48;11.38;;;5.88;;
40981;SDS011;26708;50.304;19.028;2022-07-22T06:26:50;13.75;;;6.32;;
40981;SDS011;26708;50.304;19.028;2022-07-22T06:29:51;14.40;;;6.28;;
40981;SDS011;26708;50.304;19.028;2022-07-22T06:32:52;11.88;;;6.22;;
40981;SDS011;26708;50.304;19.028;2022-07-22T06:35:53;11.02;;;5.95;;
40981;SDS011;26708;50.304;19.028;2022-07-22T06:38:54;10.70;;;5.40;;
40981;SDS011;26708;50.304;19.028;2022-07-22T06:41:55;9.35;;;5.55;;
40981;SDS011;26708;50.304;19.028;2022-07-22T06:45:22;15.98;;;5.25;;
40981;SDS011;26708;50.304;19.028;2022-07-22T06:48:28;11.82;;;5.47;;
40981;SDS011;26708;50.304;19.028;2022-07-22T06:51:29;8.18;;;5.43;;
40981;SDS011;26708;50.304;19.028;2022-07-22T06:54:30;9.13;;;5.50;;
40981;SDS011;26708;50.304;19.028;2022-07-22T06:57:34;10.05;;;5.40;;
40981;SDS011;26708;50.304;19.028;2022-07-22T07:00:36;8.10;;;5.35;;
40981;SDS011;26708;50.304;19.028;2022-07-22T07:04:05;11.68;;;6.03;;
40981;SDS011;26708;50.304;19.028;2022-07-22T07:07:08;11.13;;;6.10;;
40981;SDS011;26708;50.304;19.028;2022-07-22T07:10:21;13.68;;;5.72;;
40981;SDS011;26708;50.304;19.028;2022-07-22T07:13:32;14.80;;;5.82;;
40981;SDS011;26708;50.304;19.028;2022-07-22T07:16:33;12.45;;;5.88;;
40981;SDS011;26708;50.304;19.028;2022-07-22T07:19:36;10.48;;;5.43;;
40981;SDS011;26708;50.304;19.028;2022-07-22T07:22:36;11.77;;;5.30;;
40981;SDS011;26708;50.304;19.028;2022-07-22T07:25:38;12.27;;;5.43;;
40981;SDS011;26708;50.304;19.028;2022-07-22T07:28:39;11.65;;;5.13;;
40981;SDS011;26708;50.304;19.028;2022-07-22T07:31:47;10.02;;;4.55;;
40981;SDS011;26708;50.304;19.028;2022-07-22T07:34:49;12.73;;;5.20;;
40981;SDS011;26708;50.304;19.028;2022-07-22T07:37:49;8.80;;;4.78;;
40981;SDS011;26708;50.304;19.028;2022-07-22T07:40:51;16.60;;;5.55;;
40981;SDS011;26708;50.304;19.028;2022-07-22T07:43:54;9.87;;;5.57;;
40981;SDS011;26708;50.304;19.028;2022-07-22T07:46:56;8.98;;;4.90;;
40981;SDS011;26708;50.304;19.028;2022-07-22T07:49:56;10.30;;;5.82;;
40981;SDS011;26708;50.304;19.028;2022-07-22T07:53:00;12.07;;;5.35;;
40981;SDS011;26708;50.304;19.028;2022-07-22T07:56:02;7.18;;;5.45;;
40981;SDS011;26708;50.304;19.028;2022-07-22T07:59:03;13.35;;;5.70;;
40981;SDS011;26708;50.304;19.028;2022-07-22T08:02:05;8.35;;;5.65;;
40981;SDS011;26708;50.304;19.028;2022-07-22T08:05:08;11.10;;;5.75;;
40981;SDS011;26708;50.304;19.028;2022-07-22T08:08:10;10.18;;;6.30;;
40981;SDS011;26708;50.304;19.028;2022-07-22T08:11:13;13.77;;;6.22;;
40981;SDS011;26708;50.304;19.028;2022-07-22T08:14:50;9.55;;;5.78;;
40981;SDS011;26708;50.304;19.028;2022-07-22T08:18:09;12.48;;;5.38;;
40981;SDS011;26708;50.304;19.028;2022-07-22T08:21:10;9.70;;;5.32;;
40981;SDS011;26708;50.304;19.028;2022-07-22T08:24:18;8.77;;;5.57;;
40981;SDS011;26708;50.304;19.028;2022-07-22T08:27:20;10.07;;;5.38;;
40981;SDS011;26708;50.304;19.028;2022-07-22T08:30:21;11.20;;;5.57;;
40981;SDS011;26708;50.304;19.028;2022-07-22T08:33:24;8.68;;;5.05;;
40981;SDS011;26708;50.304;19.028;2022-07-22T08:36:24;13.52;;;5.43;;
40981;SDS011;26708;50.304;19.028;2022-07-22T08:39:26;8.48;;;5.13;;
40981;SDS011;26708;50.304;19.028;2022-07-22T08:42:27;11.38;;;5.32;;
40981;SDS011;26708;50.304;19.028;2022-07-22T08:45:31;8.63;;;4.85;;
40981;SDS011;26708;50.304;19.028;2022-07-22T08:48:32;10.27;;;5.18;;
40981;SDS011;26708;50.304;19.028;2022-07-22T08:51:55;11.65;;;5.18;;
40981;SDS011;26708;50.304;19.028;2022-07-22T08:55:01;7.65;;;4.32;;
40981;SDS011;26708;50.304;19.028;2022-07-22T08:58:03;11.25;;;5.15;;
40981;SDS011;26708;50.304;19.028;2022-07-22T09:01:05;8.38;;;5.65;;
40981;SDS011;26708;50.304;19.028;2022-07-22T09:04:07;9.20;;;5.00;;
40981;SDS011;26708;50.304;19.028;2022-07-22T09:07:10;8.02;;;5.43;;
40981;SDS011;26708;50.304;19.028;2022-07-22T09:10:13;7.03;;;5.30;;
40981;SDS011;26708;50.304;19.028;2022-07-22T09:13:37;10.52;;;5.43;;
40981;SDS011;26708;50.304;19.028;2022-07-22T09:16:56;9.02;;;4.95;;
40981;SDS011;26708;50.304;19.028;2022-07-22T09:20:17;10.60;;;5.32;;
40981;SDS011;26708;50.304;19.028;2022-07-22T09:23:39;13.10;;;5.35;;
40981;SDS011;26708;50.304;19.028;2022-07-22T09:26:42;12.55;;;5.55;;
40981;SDS011;26708;50.304;19.028;2022-07-22T09:30:16;8.65;;;4.60;;
40981;SDS011;26708;50.304;19.028;2022-07-22T09:33:26;7.60;;;4.85;;
40981;SDS011;26708;50.304;19.028;2022-07-22T09:36:52;7.80;;;4.57;;
40981;SDS011;26708;50.304;19.028;2022-07-22T09:39:54;13.23;;;4.85;;
40981;SDS011;26708;50.304;19.028;2022-07-22T09:43:22;9.23;;;4.55;;
40981;SDS011;26708;50.304;19.028;2022-07-22T09:46:35;8.30;;;5.22;;
40981;SDS011;26708;50.304;19.028;2022-07-22T09:50:00;8.95;;;5.20;;
40981;SDS011;26708;50.304;19.028;2022-07-22T09:53:12;8.90;;;4.78;;
40981;SDS011;26708;50.304;19.028;2022-07-22T09:56:18;8.35;;;4.53;;
40981;SDS011;26708;50.304;19.028;2022-07-22T09:59:20;6.43;;;4.35;;
40981;SDS011;26708;50.304;19.028;2022-07-22T10:02:27;10.18;;;4.57;;
40981;SDS011;26708;50.304;19.028;2022-07-22T10:05:30;10.07;;;5.20;;
40981;SDS011;26708;50.304;19.028;2022-07-22T10:08:33;9.32;;;4.70;;
40981;SDS011;26708;50.304;19.028;2022-07-22T10:11:34;13.50;;;4.57;;
40981;SDS011;26708;50.304;19.028;2022-07-22T10:14:37;10.25;;;5.10;;
40981;SDS011;26708;50.304;19.028;2022-07-22T10:17:43;6.72;;;3.97;;
40981;SDS011;26708;50.304;19.028;2022-07-22T10:20:46;11.35;;;4.47;;
40981;SDS011;26708;50.304;19.028;2022-07-22T10:34:23;7.35;;;4.90;;
40981;SDS011;26708;50.304;19.028;2022-07-22T10:37:35;11.82;;;5.18;;
40981;SDS011;26708;50.304;19.028;2022-07-22T10:43:49;9.07;;;5.15;;
40981;SDS011;26708;50.304;19.028;2022-07-22T10:46:50;8.27;;;4.95;;
40981;SDS011;26708;50.304;19.028;2022-07-22T10:49:55;8.77;;;4.82;;
40981;SDS011;26708;50.304;19.028;2022-07-22T10:53:47;11.40;;;4.63;;
40981;SDS011;26708;50.304;19.028;2022-07-22T10:56:57;9.48;;;4.95;;
40981;SDS011;26708;50.304;19.028;2022-07-22T11:00:02;11.38;;;5.40;;
40981;SDS011;26708;50.304;19.028;2022-07-22T11:03:03;11.00;;;5.15;;
40981;SDS011;26708;50.304;19.028;2022-07-22T11:06:23;12.02;;;4.97;;
40981;SDS011;26708;50.304;19.028;2022-07-22T11:09:33;7.45;;;4.65;;
40981;SDS011;26708;50.304;19.028;2022-07-22T11:12:34;11.02;;;4.97;;
40981;SDS011;26708;50.304;19.028;2022-07-22T11:15:35;8.02;;;4.55;;
40981;SDS011;26708;50.304;19.028;2022-07-22T11:18:52;8.32;;;4.53;;
40981;SDS011;26708;50.304;19.028;2022-07-22T11:21:56;8.57;;;5.30;;
40981;SDS011;26708;50.304;19.028;2022-07-22T11:25:07;9.88;;;4.95;;
40981;SDS011;26708;50.304;19.028;2022-07-22T11:28:10;4.68;;;3.83;;
40981;SDS011;26708;50.304;19.028;2022-07-22T11:31:15;12.30;;;5.05;;
40981;SDS011;26708;50.304;19.028;2022-07-22T11:34:18;6.40;;;4.10;;
40981;SDS011;26708;50.304;19.028;2022-07-22T11:37:21;8.82;;;5.18;;
40981;SDS011;26708;50.304;19.028;2022-07-22T11:40:23;9.23;;;4.75;;
40981;SDS011;26708;50.304;19.028;2022-07-22T11:43:43;6.65;;;4.82;;
40981;SDS011;26708;50.304;19.028;2022-07-22T11:46:46;6.93;;;4.68;;
40981;SDS011;26708;50.304;19.028;2022-07-22T11:49:48;6.93;;;4.78;;
40981;SDS011;26708;50.304;19.028;2022-07-22T11:52:52;8.75;;;4.80;;
40981;SDS011;26708;50.304;19.028;2022-07-22T11:56:00;7.65;;;4.75;;
40981;SDS011;26708;50.304;19.028;2022-07-22T11:59:02;24.65;;;12.73;;
40981;SDS011;26708;50.304;19.028;2022-07-22T12:02:05;8.10;;;4.60;;
40981;SDS011;26708;50.304;19.028;2022-07-22T12:05:10;6.22;;;4.40;;
40981;SDS011;26708;50.304;19.028;2022-07-22T12:08:11;7.28;;;3.95;;
40981;SDS011;26708;50.304;19.028;2022-07-22T12:11:13;6.68;;;4.25;;
40981;SDS011;26708;50.304;19.028;2022-07-22T12:14:17;8.80;;;5.13;;
40981;SDS011;26708;50.304;19.028;2022-07-22T12:17:19;8.82;;;4.80;;
40981;SDS011;26708;50.304;19.028;2022-07-22T12:20:27;7.60;;;4.68;;
40981;SDS011;26708;50.304;19.028;2022-07-22T12:23:28;10.65;;;4.90;;
40981;SDS011;26708;50.304;19.028;2022-07-22T12:26:43;8.07;;;4.80;;
40981;SDS011;26708;50.304;19.028;2022-07-22T12:29:44;6.40;;;4.53;;
40981;SDS011;26708;50.304;19.028;2022-07-22T12:32:46;5.82;;;4.18;;
40981;SDS011;26708;50.304;19.028;2022-07-22T12:39:19;8.80;;;4.10;;
40981;SDS011;26708;50.304;19.028;2022-07-22T12:42:20;8.38;;;5.03;;
40981;SDS011;26708;50.304;19.028;2022-07-22T12:45:21;8.55;;;5.00;;
40981;SDS011;26708;50.304;19.028;2022-07-22T12:48:27;8.32;;;4.90;;
40981;SDS011;26708;50.304;19.028;2022-07-22T12:51:28;7.82;;;5.03;;
40981;SDS011;26708;50.304;19.028;2022-07-22T12:54:30;7.07;;;4.57;;
40981;SDS011;26708;50.304;19.028;2022-07-22T12:57:30;7.15;;;4.55;;
40981;SDS011;26708;50.304;19.028;2022-07-22T13:00:32;5.88;;;3.90;;
40981;SDS011;26708;50.304;19.028;2022-07-22T13:03:36;7.43;;;4.63;;
40981;SDS011;26708;50.304;19.028;2022-07-22T13:06:37;7.32;;;4.25;;
40981;SDS011;26708;50.304;19.028;2022-07-22T13:09:38;7.30;;;4.50;;
40981;SDS011;26708;50.304;19.028;2022-07-22T13:12:38;12.27;;;5.40;;
40981;SDS011;26708;50.304;19.028;2022-07-22T13:15:39;10.43;;;4.40;;
40981;SDS011;26708;50.304;19.028;2022-07-22T13:18:40;6.43;;;4.75;;
40981;SDS011;26708;50.304;19.028;2022-07-22T13:21:41;5.60;;;4.70;;
40981;SDS011;26708;50.304;19.028;2022-07-22T13:24:42;6.65;;;4.55;;
40981;SDS011;26708;50.304;19.028;2022-07-22T13:27:42;8.23;;;4.45;;
40981;SDS011;26708;50.304;19.028;2022-07-22T13:30:43;5.75;;;4.82;;
40981;SDS011;26708;50.304;19.028;2022-07-22T13:33:45;8.70;;;4.93;;
40981;SDS011;26708;50.304;19.028;2022-07-22T13:36:45;12.07;;;5.10;;
40981;SDS011;26708;50.304;19.028;2022-07-22T13:39:46;6.63;;;4.68;;
40981;SDS011;26708;50.304;19.028;2022-07-22T13:42:48;7.68;;;4.80;;
40981;SDS011;26708;50.304;19.028;2022-07-22T13:45:49;8.02;;;4.55;;
40981;SDS011;26708;50.304;19.028;2022-07-22T13:48:51;8.27;;;5.25;;
40981;SDS011;26708;50.304;19.028;2022-07-22T13:51:53;8.20;;;5.03;;
40981;SDS011;26708;50.304;19.028;2022-07-22T13:54:54;9.32;;;4.60;;
40981;SDS011;26708;50.304;19.028;2022-07-22T13:57:54;5.18;;;4.65;;
40981;SDS011;26708;50.304;19.028;2022-07-22T14:00:57;9.15;;;5.07;;
40981;SDS011;26708;50.304;19.028;2022-07-22T14:03:58;8.18;;;4.95;;
40981;SDS011;26708;50.304;19.028;2022-07-22T14:07:00;10.43;;;5.57;;
40981;SDS011;26708;50.304;19.028;2022-07-22T14:10:02;10.73;;;5.10;;
40981;SDS011;26708;50.304;19.028;2022-07-22T14:13:03;13.55;;;4.75;;
40981;SDS011;26708;50.304;19.028;2022-07-22T14:16:04;12.70;;;5.68;;
40981;SDS011;26708;50.304;19.028;2022-07-22T14:19:43;8.48;;;5.05;;
40981;SDS011;26708;50.304;19.028;2022-07-22T14:22:44;15.38;;;5.50;;
40981;SDS011;26708;50.304;19.028;2022-07-22T14:25:44;7.82;;;4.60;;
40981;SDS011;26708;50.304;19.028;2022-07-22T14:28:45;9.68;;;4.57;;
40981;SDS011;26708;50.304;19.028;2022-07-22T14:31:46;8.68;;;5.03;;
40981;SDS011;26708;50.304;19.028;2022-07-22T14:34:46;8.13;;;5.38;;
40981;SDS011;26708;50.304;19.028;2022-07-22T14:37:47;8.98;;;4.85;;
40981;SDS011;26708;50.304;19.028;2022-07-22T14:40:48;7.22;;;5.18;;
40981;SDS011;26708;50.304;19.028;2022-07-22T14:43:50;8.30;;;5.00;;
40981;SDS011;26708;50.304;19.028;2022-07-22T14:46:50;7.95;;;5.47;;
40981;SDS011;26708;50.304;19.028;2022-07-22T14:49:51;9.45;;;5.05;;
40981;SDS011;26708;50.304;19.028;2022-07-22T14:52:52;7.85;;;4.95;;
40981;SDS011;26708;50.304;19.028;2022-07-22T14:55:52;9.43;;;5.03;;
40981;SDS011;26708;50.304;19.028;2022-07-22T14:58:53;6.80;;;4.88;;
40981;SDS011;26708;50.304;19.028;2022-07-22T15:01:54;8.10;;;4.70;;
40981;SDS011;26708;50.304;19.028;2022-07-22T15:04:55;6.03;;;4.55;;
40981;SDS011;26708;50.304;19.028;2022-07-22T15:07:55;7.90;;;4.57;;
40981;SDS011;26708;50.304;19.028;2022-07-22T15:10:56;7.00;;;4.65;;
40981;SDS011;26708;50.304;19.028;2022-07-22T15:13:59;7.35;;;4.72;;
40981;SDS011;26708;50.304;19.028;2022-07-22T15:16:59;6.35;;;4.68;;
40981;SDS011;26708;50.304;19.028;2022-07-22T15:20:00;8.48;;;4.53;;
40981;SDS011;26708;50.304;19.028;2022-07-22T15:23:01;5.78;;;4.50;;
40981;SDS011;26708;50.304;19.028;2022-07-22T15:26:03;8.73;;;4.50;;
40981;SDS011;26708;50.304;19.028;2022-07-22T15:29:04;10.35;;;5.07;;
40981;SDS011;26708;50.304;19.028;2022-07-22T15:32:04;11.88;;;5.07;;
40981;SDS011;26708;50.304;19.028;2022-07-22T15:35:06;7.05;;;4.85;;
40981;SDS011;26708;50.304;19.028;2022-07-22T15:38:07;8.40;;;5.30;;
40981;SDS011;26708;50.304;19.028;2022-07-22T15:41:08;5.63;;;4.00;;
40981;SDS011;26708;50.304;19.028;2022-07-22T15:44:09;7.07;;;4.38;;
40981;SDS011;26708;50.304;19.028;2022-07-22T15:47:10;5.60;;;4.22;;
40981;SDS011;26708;50.304;19.028;2022-07-22T15:50:11;7.45;;;4.22;;
40981;SDS011;26708;50.304;19.028;2022-07-22T15:53:12;6.95;;;4.13;;
40981;SDS011;26708;50.304;19.028;2022-07-22T15:56:13;6.97;;;4.45;;
40981;SDS011;26708;50.304;19.028;2022-07-22T15:59:15;6.95;;;4.43;;
40981;SDS011;26708;50.304;19.028;2022-07-22T16:02:32;8.05;;;4.75;;
40981;SDS011;26708;50.304;19.028;2022-07-22T16:05:33;7.80;;;4.35;;
40981;SDS011;26708;50.304;19.028;2022-07-22T16:08:34;5.70;;;4.50;;
40981;SDS011;26708;50.304;19.028;2022-07-22T16:11:35;6.35;;;4.20;;
40981;SDS011;26708;50.304;19.028;2022-07-22T16:14:36;8.48;;;4.97;;
40981;SDS011;26708;50.304;19.028;2022-07-22T16:17:37;6.32;;;4.75;;
40981;SDS011;26708;50.304;19.028;2022-07-22T16:20:41;6.53;;;4.55;;
40981;SDS011;26708;50.304;19.028;2022-07-22T16:23:45;6.53;;;4.70;;
40981;SDS011;26708;50.304;19.028;2022-07-22T16:26:45;7.53;;;4.57;;
40981;SDS011;26708;50.304;19.028;2022-07-22T16:29:46;7.68;;;4.45;;
40981;SDS011;26708;50.304;19.028;2022-07-22T16:32:47;7.72;;;4.95;;
40981;SDS011;26708;50.304;19.028;2022-07-22T16:35:48;5.50;;;4.13;;
40981;SDS011;26708;50.304;19.028;2022-07-22T16:38:49;7.70;;;4.35;;
40981;SDS011;26708;50.304;19.028;2022-07-22T16:41:50;7.72;;;4.70;;
40981;SDS011;26708;50.304;19.028;2022-07-22T16:44:51;5.03;;;4.15;;
40981;SDS011;26708;50.304;19.028;2022-07-22T16:47:52;7.00;;;4.03;;
40981;SDS011;26708;50.304;19.028;2022-07-22T16:50:53;11.40;;;5.18;;
40981;SDS011;26708;50.304;19.028;2022-07-22T16:53:54;7.15;;;4.43;;
40981;SDS011;26708;50.304;19.028;2022-07-22T16:56:55;6.97;;;4.40;;
40981;SDS011;26708;50.304;19.028;2022-07-22T16:59:56;5.72;;;4.25;;
40981;SDS011;26708;50.304;19.028;2022-07-22T17:02:57;9.70;;;4.88;;
40981;SDS011;26708;50.304;19.028;2022-07-22T17:05:58;6.03;;;4.45;;
40981;SDS011;26708;50.304;19.028;2022-07-22T17:09:00;5.60;;;4.32;;
40981;SDS011;26708;50.304;19.028;2022-07-22T17:12:00;7.18;;;4.38;;
40981;SDS011;26708;50.304;19.028;2022-07-22T17:15:01;8.15;;;4.43;;
40981;SDS011;26708;50.304;19.028;2022-07-22T17:18:03;5.32;;;3.95;;
40981;SDS011;26708;50.304;19.028;2022-07-22T17:21:04;8.57;;;4.40;;
40981;SDS011;26708;50.304;19.028;2022-07-22T17:24:11;7.00;;;4.53;;
40981;SDS011;26708;50.304;19.028;2022-07-22T17:27:13;8.30;;;4.88;;
40981;SDS011;26708;50.304;19.028;2022-07-22T17:30:14;7.20;;;4.30;;
40981;SDS011;26708;50.304;19.028;2022-07-22T17:33:15;7.82;;;4.40;;
40981;SDS011;26708;50.304;19.028;2022-07-22T17:36:16;4.85;;;4.18;;
40981;SDS011;26708;50.304;19.028;2022-07-22T17:39:17;7.75;;;4.38;;
40981;SDS011;26708;50.304;19.028;2022-07-22T17:42:18;6.43;;;4.00;;
40981;SDS011;26708;50.304;19.028;2022-07-22T17:45:18;7.07;;;4.03;;
40981;SDS011;26708;50.304;19.028;2022-07-22T17:48:19;8.20;;;3.95;;
40981;SDS011;26708;50.304;19.028;2022-07-22T17:51:20;6.05;;;4.10;;
40981;SDS011;26708;50.304;19.028;2022-07-22T17:54:21;9.25;;;4.50;;
40981;SDS011;26708;50.304;19.028;2022-07-22T17:57:22;5.47;;;4.38;;
40981;SDS011;26708;50.304;19.028;2022-07-22T18:00:24;6.68;;;4.13;;
40981;SDS011;26708;50.304;19.028;2022-07-22T18:03:25;6.45;;;4.03;;
40981;SDS011;26708;50.304;19.028;2022-07-22T18:06:28;5.63;;;3.67;;
40981;SDS011;26708;50.304;19.028;2022-07-22T18:09:29;9.23;;;4.32;;
40981;SDS011;26708;50.304;19.028;2022-07-22T18:12:29;5.30;;;4.07;;
40981;SDS011;26708;50.304;19.028;2022-07-22T18:15:31;10.55;;;3.97;;
40981;SDS011;26708;50.304;19.028;2022-07-22T18:18:31;8.65;;;4.40;;